Time;durP1;ratioP1;P1;durP2;ratioP2;P2;SDS_P1;SDS_P2;PMS_P1;PMS_P2;Temp;Humidity;BMP_temperature;BMP_pressure;BME280_temperature;BME280_humidity;BME280_pressure;Samples;Min_cycle;Max_cycle;Signal;HPM_P1;HPM_P2
2021/09/28 00:01:26;;;;;;;;;;;12.90;99.90;;;;;;5035368;28;19992;-78
2021/09/28 00:03:52;;;;;;;;;;;12.90;99.90;;;;;;5034026;28;19905;-79
2021/09/28 00:06:17;;;;;;;;;;;13.00;99.90;;;;;;5035052;28;19977;-79
2021/09/28 00:08:43;;;;;;;;;;;13.00;99.90;;;;;;5035302;28;20356;-79
2021/09/28 00:11:09;;;;;;;;;;;13.20;99.90;;;;;;5034706;28;19905;-79
2021/09/28 00:13:35;;;;;;;;;;;13.20;99.90;;;;;;5035081;28;19909;-79
2021/09/28 00:16:01;;;;;;;;;;;13.20;99.90;;;;;;5035259;28;19999;-79
2021/09/28 00:18:27;;;;;;;;;;;13.20;99.90;;;;;;5035134;28;19955;-78
2021/09/28 00:20:52;;;;;;;;;;;13.20;99.90;;;;;;5034928;28;20381;-78
2021/09/28 00:23:18;;;;;;;;;;;13.20;99.90;;;;;;5034927;28;19999;-79
2021/09/28 00:25:44;;;;;;;;;;;13.10;99.90;;;;;;5033596;28;19995;-79
2021/09/28 00:28:10;;;;;;;;;;;13.10;99.90;;;;;;5034889;28;19996;-79
2021/09/28 00:30:35;;;;;;;;;;;13.20;99.90;;;;;;5034754;28;20003;-78
2021/09/28 00:33:01;;;;;;;;;;;13.30;99.90;;;;;;5034803;28;19909;-79
2021/09/28 00:35:27;;;;;;;;;;;13.30;99.90;;;;;;5034678;28;19905;-78
2021/09/28 00:37:52;;;;;;;;;;;13.40;99.90;;;;;;5033279;28;19987;-78
2021/09/28 00:40:18;;;;;;;;;;;13.40;99.90;;;;;;5034518;28;20276;-79
2021/09/28 00:42:44;;;;;;;;;;;13.40;99.90;;;;;;5034508;28;19905;-78
2021/09/28 00:45:09;;;;;;;;;;;13.50;99.90;;;;;;5034508;28;20034;-78
2021/09/28 00:47:35;;;;;;;;;;;13.60;99.90;;;;;;5034320;28;19935;-79
2021/09/28 00:50:01;;;;;;;;;;;13.30;99.90;;;;;;5033138;28;20019;-79
2021/09/28 00:52:26;;;;;;;;;;;12.90;99.90;;;;;;5034500;28;19905;-78
2021/09/28 00:54:52;;;;;;;;;;;12.80;99.90;;;;;;5034408;28;20372;-79
2021/09/28 00:57:18;;;;;;;;;;;12.90;99.90;;;;;;5034297;28;19971;-79
2021/09/28 00:59:44;;;;;;;;;;;13.00;99.90;;;;;;5034249;28;19905;-78
2021/09/28 01:02:10;;;;;;;;;;;13.00;99.90;;;;;;5033598;28;19912;-79
2021/09/28 01:04:36;;;;;;;;;;;13.00;99.90;;;;;;5033997;28;20288;-79
2021/09/28 01:07:02;;;;;;;;;;;13.10;99.90;;;;;;5034136;28;19909;-79
2021/09/28 01:09:28;;;;;;;;;;;13.10;99.90;;;;;;5034006;28;19913;-79
2021/09/28 01:11:54;;;;;;;;;;;13.20;99.90;;;;;;5034062;28;20387;-79
2021/09/28 01:14:19;;;;;;;;;;;13.40;99.90;;;;;;5032717;28;20288;-78
2021/09/28 01:16:45;;;;;;;;;;;13.60;99.90;;;;;;5034001;28;19905;-79
2021/09/28 01:19:11;;;;;;;;;;;13.60;99.90;;;;;;5034160;28;19909;-78
2021/09/28 01:21:38;;;;;;;;;;;13.40;99.90;;;;;;5033360;28;19912;-79
2021/09/28 01:24:04;;;;;;;;;;;13.20;99.90;;;;;;5033790;28;19905;-79
2021/09/28 01:26:30;;;;;;;;;;;13.00;99.90;;;;;;5033786;28;19940;-79
2021/09/28 01:28:56;;;;;;;;;;;12.90;99.90;;;;;;5033792;28;20352;-78
2021/09/28 01:31:25;;;;;;;;;;;12.90;99.90;;;;;;5032476;28;20323;-79
2021/09/28 01:33:51;;;;;;;;;;;13.10;99.90;;;;;;5033793;28;19955;-79
2021/09/28 01:36:17;;;;;;;;;;;13.40;99.90;;;;;;5033950;28;19959;-79
2021/09/28 01:38:43;;;;;;;;;;;13.40;99.90;;;;;;5032388;28;20362;-79
2021/09/28 01:41:09;;;;;;;;;;;13.40;99.90;;;;;;5032360;28;19905;-79
2021/09/28 01:43:35;;;;;;;;;;;13.30;99.90;;;;;;5033625;28;19992;-79
2021/09/28 01:46:02;;;;;;;;;;;13.40;99.90;;;;;;5033942;28;19951;-78
2021/09/28 01:48:33;;;;;;;;;;;13.40;99.90;;;;;;5032248;28;19995;-78
2021/09/28 01:50:59;;;;;;;;;;;13.20;99.90;;;;;;5033765;28;19909;-79
2021/09/28 01:53:24;;;;;;;;;;;13.30;99.90;;;;;;5033513;28;20339;-79
2021/09/28 01:55:50;;;;;;;;;;;13.30;99.90;;;;;;5032262;28;19905;-79
2021/09/28 01:58:17;;;;;;;;;;;13.60;99.90;;;;;;5033614;28;20281;-79
2021/09/28 02:00:43;;;;;;;;;;;13.70;99.90;;;;;;5033496;28;20361;-79
2021/09/28 02:03:09;;;;;;;;;;;13.70;99.90;;;;;;5033461;28;19912;-79
2021/09/28 02:05:34;;;;;;;;;;;13.70;99.90;;;;;;5033231;28;19917;-79
2021/09/28 02:08:00;;;;;;;;;;;13.80;99.90;;;;;;5033640;28;19909;-79
2021/09/28 02:10:25;;;;;;;;;;;13.20;99.90;;;;;;5033468;28;20277;-79
2021/09/28 02:12:51;;;;;;;;;;;13.10;99.90;;;;;;5033422;28;19917;-79
2021/09/28 02:15:16;;;;;;;;;;;13.30;99.90;;;;;;5033487;28;19905;-79
2021/09/28 02:17:42;;;;;;;;;;;13.40;99.90;;;;;;5033583;28;19963;-79
2021/09/28 02:20:08;;;;;;;;;;;13.60;99.90;;;;;;5033456;28;20380;-79
2021/09/28 02:22:35;;;;;;;;;;;13.70;99.90;;;;;;5033523;28;19912;-79
2021/09/28 02:25:01;;;;;;;;;;;13.40;99.90;;;;;;5033259;28;19951;-78
2021/09/28 02:27:26;;;;;;;;;;;13.50;99.90;;;;;;5031854;28;19905;-79
2021/09/28 02:29:52;;;;;;;;;;;13.20;99.90;;;;;;5033225;28;19905;-78
2021/09/28 02:32:18;;;;;;;;;;;12.80;99.90;;;;;;5033212;28;20416;-79
2021/09/28 02:34:43;;;;;;;;;;;12.80;99.90;;;;;;5036245;28;19912;-78
2021/09/28 02:37:11;;;;;;;;;;;12.80;99.90;;;;;;5035488;28;20300;-78
2021/09/28 02:39:39;;;;;;;;;;;12.70;99.90;;;;;;5036842;28;20436;-79
2021/09/28 02:42:05;;;;;;;;;;;13.00;99.90;;;;;;5036900;28;19909;-78
2021/09/28 02:44:31;;;;;;;;;;;13.30;99.90;;;;;;5036705;28;20420;-78
2021/09/28 02:46:57;;;;;;;;;;;13.50;99.90;;;;;;5036741;28;20008;-79
2021/09/28 02:49:22;;;;;;;;;;;13.50;99.90;;;;;;5036647;28;19909;-79
2021/09/28 02:51:48;;;;;;;;;;;13.40;99.90;;;;;;5036622;28;19905;-78
2021/09/28 02:54:13;;;;;;;;;;;13.20;99.90;;;;;;5035288;28;19927;-78
2021/09/28 02:56:39;;;;;;;;;;;13.40;99.90;;;;;;5036664;28;19905;-78
2021/09/28 02:59:04;;;;;;;;;;;13.40;99.90;;;;;;5036498;28;19932;-79
2021/09/28 03:01:30;;;;;;;;;;;13.70;99.90;;;;;;5036467;28;20284;-79
2021/09/28 03:03:56;;;;;;;;;;;13.70;99.90;;;;;;5036406;28;19988;-79
2021/09/28 03:06:21;;;;;;;;;;;13.70;99.90;;;;;;5035073;28;19921;-78
2021/09/28 03:08:47;;;;;;;;;;;13.60;99.90;;;;;;5036319;28;19909;-79
2021/09/28 03:11:12;;;;;;;;;;;13.50;99.90;;;;;;5036231;28;20336;-79
2021/09/28 03:13:38;;;;;;;;;;;13.40;99.90;;;;;;5036232;28;19905;-79
2021/09/28 03:16:04;;;;;;;;;;;13.50;99.90;;;;;;5036167;28;20353;-79
2021/09/28 03:18:29;;;;;;;;;;;13.40;99.90;;;;;;5036126;28;20388;-79
2021/09/28 03:20:55;;;;;;;;;;;13.30;99.90;;;;;;5036091;28;19905;-79
2021/09/28 03:23:20;;;;;;;;;;;13.40;99.90;;;;;;5036058;28;19905;-79
2021/09/28 03:25:46;;;;;;;;;;;13.40;99.90;;;;;;5036160;28;20431;-79
2021/09/28 03:28:12;;;;;;;;;;;13.40;99.90;;;;;;5036048;28;19996;-79
2021/09/28 03:30:37;;;;;;;;;;;13.20;99.90;;;;;;5035902;28;20316;-79
2021/09/28 03:33:03;;;;;;;;;;;13.20;99.90;;;;;;5036265;28;19951;-79
2021/09/28 03:35:29;;;;;;;;;;;13.30;99.90;;;;;;5035964;28;19912;-79
2021/09/28 03:37:55;;;;;;;;;;;13.40;99.90;;;;;;5035712;28;20304;-78
2021/09/28 03:40:20;;;;;;;;;;;13.30;99.90;;;;;;5035735;28;19996;-79
2021/09/28 03:42:47;;;;;;;;;;;13.40;99.90;;;;;;5036127;28;20427;-79
2021/09/28 03:45:13;;;;;;;;;;;13.30;99.90;;;;;;5034892;28;19952;-79
2021/09/28 03:47:38;;;;;;;;;;;13.10;99.90;;;;;;5035639;28;19954;-79
2021/09/28 03:50:05;;;;;;;;;;;13.00;99.90;;;;;;5035546;28;19999;-79
2021/09/28 03:52:30;;;;;;;;;;;13.20;99.90;;;;;;5035502;28;19906;-79
2021/09/28 03:54:56;;;;;;;;;;;13.20;99.90;;;;;;5035467;28;20481;-79
2021/09/28 03:57:22;;;;;;;;;;;13.20;99.90;;;;;;5035390;28;19928;-79
2021/09/28 03:59:47;;;;;;;;;;;13.30;99.90;;;;;;5035342;28;19943;-79
2021/09/28 04:02:13;;;;;;;;;;;13.40;99.90;;;;;;5035304;28;19912;-79
2021/09/28 04:04:39;;;;;;;;;;;13.60;99.90;;;;;;5035277;28;19924;-79
2021/09/28 04:07:04;;;;;;;;;;;13.60;99.90;;;;;;5035236;28;19940;-79
2021/09/28 04:09:30;;;;;;;;;;;13.60;99.90;;;;;;5035404;28;20365;-79
2021/09/28 04:11:56;;;;;;;;;;;13.70;99.90;;;;;;5035116;28;19951;-79
2021/09/28 04:14:21;;;;;;;;;;;13.80;99.90;;;;;;5035192;28;19963;-79
2021/09/28 04:16:47;;;;;;;;;;;13.70;99.90;;;;;;5035020;28;19912;-79
2021/09/28 04:19:12;;;;;;;;;;;13.70;99.90;;;;;;5034964;28;19909;-79
2021/09/28 04:21:39;;;;;;;;;;;13.50;99.90;;;;;;5034941;28;19951;-78
2021/09/28 04:24:05;;;;;;;;;;;13.50;99.90;;;;;;5034897;28;19959;-79
2021/09/28 04:26:32;;;;;;;;;;;13.70;99.90;;;;;;5034839;28;19912;-80
2021/09/28 04:28:57;;;;;;;;;;;13.70;99.90;;;;;;5034756;28;19908;-79
2021/09/28 04:31:23;;;;;;;;;;;13.60;99.90;;;;;;5034974;28;19905;-79
2021/09/28 04:33:49;;;;;;;;;;;13.50;99.90;;;;;;5034862;28;19912;-79
2021/09/28 04:36:14;;;;;;;;;;;13.60;99.90;;;;;;5034587;28;20317;-79
2021/09/28 04:38:40;;;;;;;;;;;13.80;99.90;;;;;;5034549;28;20361;-78
2021/09/28 04:41:06;;;;;;;;;;;13.90;99.90;;;;;;5034832;28;19929;-79
2021/09/28 04:43:31;;;;;;;;;;;13.70;99.90;;;;;;5034701;28;19916;-78
2021/09/28 04:45:57;;;;;;;;;;;13.80;99.90;;;;;;5034802;28;19913;-78
2021/09/28 04:48:22;;;;;;;;;;;13.90;99.90;;;;;;5034400;28;19916;-78
2021/09/28 04:50:49;;;;;;;;;;;13.90;99.90;;;;;;5034460;28;19905;-78
2021/09/28 04:53:15;;;;;;;;;;;13.70;99.90;;;;;;5034382;28;20389;-78
2021/09/28 04:55:41;;;;;;;;;;;13.70;99.90;;;;;;5034434;28;19937;-79
2021/09/28 04:58:06;;;;;;;;;;;13.80;99.90;;;;;;5034251;28;19941;-79
2021/09/28 05:00:32;;;;;;;;;;;13.80;99.90;;;;;;5034230;28;19955;-79
2021/09/28 05:02:58;;;;;;;;;;;13.80;99.90;;;;;;5034191;28;19944;-78
2021/09/28 05:05:23;;;;;;;;;;;13.80;99.90;;;;;;5034038;28;19948;-78
2021/09/28 05:07:49;;;;;;;;;;;13.80;99.90;;;;;;5034185;28;19909;-79
2021/09/28 05:10:15;;;;;;;;;;;13.70;99.90;;;;;;5032837;28;20253;-79
2021/09/28 05:12:41;;;;;;;;;;;13.50;99.90;;;;;;5034176;28;20377;-78
2021/09/28 05:15:06;;;;;;;;;;;13.40;99.90;;;;;;5034029;28;19905;-78
2021/09/28 05:17:32;;;;;;;;;;;13.50;99.90;;;;;;5033969;28;19904;-79
2021/09/28 05:19:57;;;;;;;;;;;13.40;99.90;;;;;;5033979;28;20420;-78
2021/09/28 05:22:23;;;;;;;;;;;13.40;99.90;;;;;;5033942;28;20035;-79
2021/09/28 05:24:49;;;;;;;;;;;13.50;99.90;;;;;;5032558;28;19909;-79
2021/09/28 05:27:15;;;;;;;;;;;13.60;99.90;;;;;;5032581;28;20365;-79
2021/09/28 05:29:40;;;;;;;;;;;13.60;99.90;;;;;;5032462;28;19916;-79
2021/09/28 05:32:06;;;;;;;;;;;13.60;99.90;;;;;;5033980;28;19905;-79
2021/09/28 05:34:32;;;;;;;;;;;13.60;99.90;;;;;;5032425;28;19908;-78
2021/09/28 05:36:58;;;;;;;;;;;13.70;99.90;;;;;;5034050;28;20408;-79
2021/09/28 05:39:24;;;;;;;;;;;13.60;99.90;;;;;;5033729;28;19905;-79
2021/09/28 05:41:49;;;;;;;;;;;13.70;99.90;;;;;;5033895;28;19905;-79
2021/09/28 05:44:15;;;;;;;;;;;13.70;99.90;;;;;;5033647;28;19905;-79
2021/09/28 05:46:41;;;;;;;;;;;13.80;99.90;;;;;;5032336;28;19905;-79
2021/09/28 05:49:06;;;;;;;;;;;13.90;99.90;;;;;;5033637;28;19917;-78
2021/09/28 05:51:33;;;;;;;;;;;13.80;99.90;;;;;;5032814;28;19916;-78
2021/09/28 05:54:01;;;;;;;;;;;13.70;99.90;;;;;;5032294;28;19905;-78
2021/09/28 05:56:27;;;;;;;;;;;13.50;99.90;;;;;;5033784;28;19905;-79
2021/09/28 05:58:52;;;;;;;;;;;13.50;99.90;;;;;;5033519;28;19904;-79
2021/09/28 06:01:18;;;;;;;;;;;13.50;99.90;;;;;;5033420;28;20396;-79
2021/09/28 06:03:44;;;;;;;;;;;13.60;99.90;;;;;;5033591;28;19959;-78
2021/09/28 06:06:09;;;;;;;;;;;13.60;99.90;;;;;;5031714;28;19916;-79
2021/09/28 06:08:35;;;;;;;;;;;13.60;99.90;;;;;;5033484;28;19916;-79
2021/09/28 06:11:01;;;;;;;;;;;13.60;99.90;;;;;;5037271;28;19912;-79
2021/09/28 06:13:27;;;;;;;;;;;13.60;99.90;;;;;;5037688;28;19905;-79
2021/09/28 06:15:53;;;;;;;;;;;13.70;99.90;;;;;;5037230;28;20340;-79
2021/09/28 06:18:19;;;;;;;;;;;13.80;99.90;;;;;;5035909;28;19905;-79
2021/09/28 06:20:45;;;;;;;;;;;13.80;99.90;;;;;;5037232;28;20323;-78
2021/09/28 06:23:11;;;;;;;;;;;13.80;99.90;;;;;;5037089;28;19905;-78
2021/09/28 06:25:37;;;;;;;;;;;13.80;99.90;;;;;;5037001;28;19909;-78
2021/09/28 06:28:03;;;;;;;;;;;13.60;99.90;;;;;;5036917;28;19933;-78
2021/09/28 06:30:28;;;;;;;;;;;13.60;99.90;;;;;;5036872;28;20047;-78
2021/09/28 06:32:54;;;;;;;;;;;13.50;99.90;;;;;;5035579;28;19912;-79
2021/09/28 06:35:20;;;;;;;;;;;13.50;99.90;;;;;;5035577;28;19912;-79
2021/09/28 06:37:45;;;;;;;;;;;13.40;99.90;;;;;;5037092;28;19980;-79
2021/09/28 06:40:11;;;;;;;;;;;13.40;99.90;;;;;;5037062;28;20364;-79
2021/09/28 06:42:36;;;;;;;;;;;13.50;99.90;;;;;;5036899;28;19955;-78
2021/09/28 06:45:02;;;;;;;;;;;13.50;99.90;;;;;;5035544;28;19905;-78
2021/09/28 06:47:28;;;;;;;;;;;13.50;99.90;;;;;;5036632;28;19909;-78
2021/09/28 06:49:53;;;;;;;;;;;13.50;99.90;;;;;;5036877;28;19913;-79
2021/09/28 06:52:19;;;;;;;;;;;13.50;99.90;;;;;;5036838;28;20000;-78
2021/09/28 06:54:45;;;;;;;;;;;13.50;99.90;;;;;;5035297;28;20003;-78
2021/09/28 06:57:10;;;;;;;;;;;13.50;99.90;;;;;;5036671;28;19959;-78
2021/09/28 06:59:36;;;;;;;;;;;13.70;99.90;;;;;;5036478;28;19948;-78
2021/09/28 07:02:01;;;;;;;;;;;13.70;99.90;;;;;;5036480;28;19924;-79
2021/09/28 07:04:27;;;;;;;;;;;13.80;99.90;;;;;;5034974;28;19909;-79
2021/09/28 07:06:53;;;;;;;;;;;13.90;99.90;;;;;;5034863;28;20399;-79
2021/09/28 07:09:19;;;;;;;;;;;14.00;99.90;;;;;;5036290;28;19909;-79
2021/09/28 07:11:44;;;;;;;;;;;14.10;99.90;;;;;;5036689;28;20360;-78
2021/09/28 07:14:10;;;;;;;;;;;14.30;99.90;;;;;;5036277;28;19905;-79
2021/09/28 07:16:35;;;;;;;;;;;14.30;99.90;;;;;;5034847;28;20384;-78
2021/09/28 07:19:01;;;;;;;;;;;14.30;99.90;;;;;;5034567;28;19916;-79
2021/09/28 07:21:26;;;;;;;;;;;14.40;99.90;;;;;;5034978;28;19905;-78
2021/09/28 07:23:52;;;;;;;;;;;14.50;99.90;;;;;;5035895;28;19912;-79
2021/09/28 07:26:18;;;;;;;;;;;14.70;99.90;;;;;;5035981;28;19972;-78
2021/09/28 07:28:43;;;;;;;;;;;14.80;99.90;;;;;;5034290;28;20369;-78
2021/09/28 07:31:09;;;;;;;;;;;14.80;99.90;;;;;;5035743;28;19905;-79
2021/09/28 07:33:35;;;;;;;;;;;14.80;99.90;;;;;;5035888;28;20013;-78
2021/09/28 07:36:04;;;;;;;;;;;14.90;99.90;;;;;;5036133;28;19905;-78
2021/09/28 07:38:29;;;;;;;;;;;15.00;99.90;;;;;;5034326;28;19905;-78
2021/09/28 07:40:55;;;;;;;;;;;15.00;99.90;;;;;;5034482;28;19928;-79
2021/09/28 07:43:21;;;;;;;;;;;15.30;99.90;;;;;;5035899;28;20365;-79
2021/09/28 07:45:46;;;;;;;;;;;15.50;99.90;;;;;;5035386;28;19912;-78
2021/09/28 07:48:12;;;;;;;;;;;15.80;99.90;;;;;;5035471;28;19912;-79
2021/09/28 07:50:38;;;;;;;;;;;16.10;99.90;;;;;;5035486;28;19912;-79
2021/09/28 07:53:06;;;;;;;;;;;16.30;99.90;;;;;;5035068;28;20258;-79
2021/09/28 07:55:32;;;;;;;;;;;16.60;99.90;;;;;;5035728;28;19908;-79
2021/09/28 07:57:58;;;;;;;;;;;16.80;99.90;;;;;;5035450;28;20289;-79
2021/09/28 08:00:24;;;;;;;;;;;16.70;99.90;;;;;;5035969;28;19905;-79
2021/09/28 08:02:49;;;;;;;;;;;16.70;99.90;;;;;;5035619;28;19905;-79
2021/09/28 08:05:15;;;;;;;;;;;16.80;99.90;;;;;;5035065;28;20396;-78
2021/09/28 08:07:40;;;;;;;;;;;16.90;99.90;;;;;;5035016;28;19993;-79
2021/09/28 08:10:07;;;;;;;;;;;17.00;99.90;;;;;;5034781;28;19979;-79
2021/09/28 08:12:33;;;;;;;;;;;17.30;99.90;;;;;;5035172;28;19909;-79
2021/09/28 08:14:58;;;;;;;;;;;17.40;99.90;;;;;;5035104;28;19958;-79
2021/09/28 08:17:24;;;;;;;;;;;17.70;99.90;;;;;;5033773;28;20281;-79
2021/09/28 08:19:51;;;;;;;;;;;18.00;99.90;;;;;;5035341;28;19995;-79
2021/09/28 08:22:17;;;;;;;;;;;18.00;99.90;;;;;;5033679;28;20341;-79
2021/09/28 08:24:43;;;;;;;;;;;17.40;99.90;;;;;;5035072;28;19988;-79
2021/09/28 08:29:54;;;;;;;;;;;17.70;99.90;;;;;;5034865;28;19963;-79
2021/09/28 08:32:19;;;;;;;;;;;17.70;99.90;;;;;;5033106;28;19908;-79
2021/09/28 08:34:46;;;;;;;;;;;17.20;99.90;;;;;;5034968;28;19966;-79
2021/09/28 08:37:12;;;;;;;;;;;17.30;99.90;;;;;;5034524;28;19909;-78
2021/09/28 08:39:38;;;;;;;;;;;17.10;99.90;;;;;;5034500;28;19912;-79
2021/09/28 08:42:03;;;;;;;;;;;17.30;99.90;;;;;;5034854;28;20273;-78
2021/09/28 08:44:29;;;;;;;;;;;17.30;99.90;;;;;;5034416;28;19904;-79
2021/09/28 08:46:55;;;;;;;;;;;17.70;99.90;;;;;;5034576;28;19913;-79
2021/09/28 08:49:21;;;;;;;;;;;17.90;99.90;;;;;;5034395;28;19909;-79
2021/09/28 08:51:47;;;;;;;;;;;17.80;99.90;;;;;;5034468;28;19927;-79
2021/09/28 08:54:12;;;;;;;;;;;17.80;99.90;;;;;;5034916;28;19916;-79
2021/09/28 08:56:38;;;;;;;;;;;18.10;99.90;;;;;;5034373;28;20230;-79
2021/09/28 08:59:08;;;;;;;;;;;18.40;99.90;;;;;;5033781;28;19905;-79
2021/09/28 09:01:37;;;;;;;;;;;19.20;99.90;;;;;;5033914;28;20373;-80
2021/09/28 09:04:16;;;;;;;;;;;19.20;99.90;;;;;;5031594;28;19983;-77
2021/09/28 09:06:44;;;;;;;;;;;19.90;99.90;;;;;;5034042;28;20016;-78
2021/09/28 09:09:12;;;;;;;;;;;19.80;99.90;;;;;;5032774;28;19927;-78
2021/09/28 09:11:39;;;;;;;;;;;19.80;99.90;;;;;;5033744;28;20012;-78
2021/09/28 09:14:24;;;;;;;;;;;19.60;99.90;;;;;;5032465;28;19908;-76
2021/09/28 09:16:50;;;;;;;;;;;19.90;99.90;;;;;;5034303;28;19912;-77
2021/09/28 09:19:17;;;;;;;;;;;20.20;99.90;;;;;;5034005;28;19909;-77
2021/09/28 09:21:44;;;;;;;;;;;20.70;99.90;;;;;;5032466;28;19912;-77
2021/09/28 09:24:10;;;;;;;;;;;21.20;99.90;;;;;;5032477;28;20019;-77
2021/09/28 09:26:37;;;;;;;;;;;21.60;99.90;;;;;;5033860;28;20373;-78
2021/09/28 09:29:03;;;;;;;;;;;20.90;99.90;;;;;;5033608;28;19915;-77
2021/09/28 09:31:35;;;;;;;;;;;20.60;99.90;;;;;;5034064;28;20339;-77
2021/09/28 09:34:16;;;;;;;;;;;21.00;99.90;;;;;;5033306;28;20277;-78
2021/09/28 09:36:42;;;;;;;;;;;22.30;99.90;;;;;;5034153;28;19905;-78
2021/09/28 09:39:12;;;;;;;;;;;21.60;99.90;;;;;;5032270;28;19937;-78
2021/09/28 09:41:39;;;;;;;;;;;22.30;99.90;;;;;;5033901;28;19906;-77
2021/09/28 09:44:06;;;;;;;;;;;21.20;99.90;;;;;;5032924;28;19916;-77
2021/09/28 09:46:41;;;;;;;;;;;21.20;99.90;;;;;;5033459;28;20005;-78
2021/09/28 09:49:07;;;;;;;;;;;21.20;99.90;;;;;;5032306;28;19999;-78
2021/09/28 09:51:42;;;;;;;;;;;20.30;99.90;;;;;;5033879;28;20350;-77
2021/09/28 09:54:08;;;;;;;;;;;20.10;99.90;;;;;;5033279;28;20365;-77
2021/09/28 09:56:52;;;;;;;;;;;19.50;99.90;;;;;;5033071;28;19905;-77
2021/09/28 09:59:19;;;;;;;;;;;19.60;99.90;;;;;;5032614;28;19905;-77
2021/09/28 10:01:44;;;;;;;;;;;19.40;99.90;;;;;;5032183;28;20000;-77
2021/09/28 10:04:12;;;;;;;;;;;19.70;99.90;;;;;;5033286;28;19955;-78
2021/09/28 10:06:37;;;;;;;;;;;19.80;99.90;;;;;;5031339;28;19925;-77
2021/09/28 10:09:07;;;;;;;;;;;19.50;99.90;;;;;;5033215;28;19921;-77
2021/09/28 10:11:33;;;;;;;;;;;19.60;99.90;;;;;;5032532;28;19937;-77
2021/09/28 10:13:59;;;;;;;;;;;20.00;99.90;;;;;;5033390;28;19988;-77
2021/09/28 10:16:34;;;;;;;;;;;20.20;99.90;;;;;;5032484;28;20335;-78
2021/09/28 10:19:00;;;;;;;;;;;20.40;99.90;;;;;;5033444;28;19909;-77
2021/09/28 10:21:40;;;;;;;;;;;21.60;99.90;;;;;;5033360;28;19913;-78
2021/09/28 10:24:17;;;;;;;;;;;22.70;99.90;;;;;;5033256;28;19905;-77
2021/09/28 10:26:43;;;;;;;;;;;24.20;99.60;;;;;;5033581;28;19912;-79
2021/09/28 10:29:27;;;;;;;;;;;26.40;95.80;;;;;;5032669;28;19962;-79
2021/09/28 10:31:53;;;;;;;;;;;27.50;93.10;;;;;;5031764;28;19905;-79
2021/09/28 10:34:19;;;;;;;;;;;26.40;91.70;;;;;;5033413;28;20050;-79
2021/09/28 10:36:54;;;;;;;;;;;26.20;92.60;;;;;;5031928;28;19905;-79
2021/09/28 10:39:38;;;;;;;;;;;26.90;92.50;;;;;;5033127;28;19905;-78
2021/09/28 10:42:04;;;;;;;;;;;25.20;92.60;;;;;;5032855;28;20250;-79
2021/09/28 10:44:31;;;;;;;;;;;24.90;94.40;;;;;;5032973;28;19951;-78
2021/09/28 10:46:58;;;;;;;;;;;24.30;95.30;;;;;;5032877;28;19905;-78
2021/09/28 10:49:31;;;;;;;;;;;23.30;97.40;;;;;;5030426;28;19932;-77
2021/09/28 10:52:15;;;;;;;;;;;22.70;98.50;;;;;;5031746;28;19905;-78
2021/09/28 10:55:04;;;;;;;;;;;21.80;99.40;;;;;;5034238;28;20035;-78
2021/09/28 10:57:48;;;;;;;;;;;20.60;99.90;;;;;;5020812;28;20365;-78
2021/09/28 11:00:14;;;;;;;;;;;20.40;99.90;;;;;;5018210;28;19909;-78
2021/09/28 11:02:53;;;;;;;;;;;20.20;99.90;;;;;;5026099;28;19948;-78
2021/09/28 11:05:28;;;;;;;;;;;19.60;99.90;;;;;;5024124;28;19920;-78
2021/09/28 11:07:54;;;;;;;;;;;18.70;99.90;;;;;;5026694;28;19905;-78
2021/09/28 11:10:20;;;;;;;;;;;18.00;99.90;;;;;;5026084;28;19912;-78
2021/09/28 11:12:46;;;;;;;;;;;17.50;99.90;;;;;;5027276;28;19905;-78
2021/09/28 11:15:18;;;;;;;;;;;17.40;99.90;;;;;;5024217;28;19978;-78
2021/09/28 11:17:43;;;;;;;;;;;17.10;99.90;;;;;;5024993;28;20277;-77
2021/09/28 11:20:20;;;;;;;;;;;16.90;99.90;;;;;;5024900;28;19911;-78
2021/09/28 11:22:55;;;;;;;;;;;17.00;99.90;;;;;;5024111;28;19910;-78
2021/09/28 11:25:20;;;;;;;;;;;17.50;99.90;;;;;;5024974;28;19955;-78
2021/09/28 11:28:05;;;;;;;;;;;18.10;99.90;;;;;;5025104;28;19905;-79
2021/09/28 11:30:34;;;;;;;;;;;19.60;99.90;;;;;;5016480;28;19913;-79
2021/09/28 11:33:04;;;;;;;;;;;21.00;99.90;;;;;;5014866;28;19906;-79
2021/09/28 11:35:29;;;;;;;;;;;21.90;99.90;;;;;;5015847;28;19906;-80
2021/09/28 11:38:01;;;;;;;;;;;25.60;97.40;;;;;;5014719;28;19909;-80
2021/09/28 11:40:35;;;;;;;;;;;25.10;96.70;;;;;;5016029;28;19956;-79
2021/09/28 11:43:26;;;;;;;;;;;24.10;98.00;;;;;;5016292;28;19914;-79
2021/09/28 11:45:59;;;;;;;;;;;23.00;98.70;;;;;;5014282;28;19928;-78
2021/09/28 11:48:26;;;;;;;;;;;21.40;99.90;;;;;;5015541;28;20333;-79
2021/09/28 11:50:51;;;;;;;;;;;20.70;99.90;;;;;;5015719;28;20469;-78
2021/09/28 11:53:17;;;;;;;;;;;20.50;99.90;;;;;;5015786;28;19913;-78
2021/09/28 11:55:42;;;;;;;;;;;20.30;99.90;;;;;;5015365;28;19951;-79
2021/09/28 11:58:08;;;;;;;;;;;20.10;99.90;;;;;;5014753;28;19952;-78
2021/09/28 12:00:34;;;;;;;;;;;20.10;99.90;;;;;;5015690;28;20413;-79
2021/09/28 12:03:07;;;;;;;;;;;20.30;99.90;;;;;;5014017;28;19905;-79
2021/09/28 12:08:22;;;;;;;;;;;21.50;99.90;;;;;;5015571;28;19913;-79
2021/09/28 12:10:48;;;;;;;;;;;21.60;99.90;;;;;;5014690;28;19913;-79
2021/09/28 12:13:14;;;;;;;;;;;22.50;99.90;;;;;;5015249;28;19905;-79
2021/09/28 12:15:59;;;;;;;;;;;22.50;99.70;;;;;;5013737;28;19906;-79
2021/09/28 12:18:24;;;;;;;;;;;22.80;99.40;;;;;;5015155;28;19905;-79
2021/09/28 12:20:50;;;;;;;;;;;22.60;99.40;;;;;;5012965;28;19916;-79
2021/09/28 12:23:15;;;;;;;;;;;22.60;99.80;;;;;;5015080;28;20346;-78
2021/09/28 12:25:44;;;;;;;;;;;22.30;98.40;;;;;;5013860;28;19995;-79
2021/09/28 12:28:13;;;;;;;;;;;22.60;98.60;;;;;;5014967;28;20008;-79
2021/09/28 12:30:49;;;;;;;;;;;22.50;98.20;;;;;;5014640;28;19906;-80
2021/09/28 12:33:14;;;;;;;;;;;22.90;97.50;;;;;;5012901;28;19905;-79
2021/09/28 12:35:40;;;;;;;;;;;22.60;97.60;;;;;;5014583;28;20435;-79
2021/09/28 12:38:09;;;;;;;;;;;23.00;97.10;;;;;;5014013;28;19964;-79
2021/09/28 12:40:41;;;;;;;;;;;22.90;96.50;;;;;;5015472;28;20397;-79
2021/09/28 12:43:14;;;;;;;;;;;23.50;96.30;;;;;;5014895;28;19951;-80
2021/09/28 12:45:41;;;;;;;;;;;27.00;92.80;;;;;;5014648;28;19905;-80
2021/09/28 12:48:07;;;;;;;;;;;26.50;91.80;;;;;;5013414;28;20377;-80
2021/09/28 12:50:33;;;;;;;;;;;26.30;90.90;;;;;;5014750;28;19912;-80
2021/09/28 12:53:11;;;;;;;;;;;25.70;89.90;;;;;;5013392;28;19905;-80
2021/09/28 12:55:37;;;;;;;;;;;28.90;83.60;;;;;;5014897;28;19945;-80
2021/09/28 12:58:03;;;;;;;;;;;29.60;81.40;;;;;;5013223;28;19917;-81
2021/09/28 13:00:29;;;;;;;;;;;29.10;76.70;;;;;;5013945;28;19945;-80
2021/09/28 13:02:55;;;;;;;;;;;29.40;80.40;;;;;;5012462;28;19906;-79
2021/09/28 13:05:21;;;;;;;;;;;27.50;79.00;;;;;;5014423;28;19920;-80
2021/09/28 13:07:48;;;;;;;;;;;26.30;85.10;;;;;;5013973;28;19905;-80
2021/09/28 13:10:14;;;;;;;;;;;28.20;83.80;;;;;;5012240;28;20000;-80
2021/09/28 13:12:39;;;;;;;;;;;28.10;86.60;;;;;;5012996;28;19944;-80
2021/09/28 13:15:05;;;;;;;;;;;31.40;76.30;;;;;;5014357;28;19909;-80
2021/09/28 13:17:31;;;;;;;;;;;31.00;70.80;;;;;;5014818;28;19905;-80
2021/09/28 13:19:59;;;;;;;;;;;29.10;73.30;;;;;;5014259;28;20043;-79
2021/09/28 13:22:25;;;;;;;;;;;30.10;68.30;;;;;;5012393;28;19963;-80
2021/09/28 13:24:50;;;;;;;;;;;32.90;66.90;;;;;;5012933;28;19992;-80
2021/09/28 13:27:16;;;;;;;;;;;30.10;66.30;;;;;;5014171;28;19906;-79
2021/09/28 13:29:42;;;;;;;;;;;25.40;76.30;;;;;;5011544;28;19913;-79
2021/09/28 13:32:07;;;;;;;;;;;24.50;83.70;;;;;;5014195;28;19912;-79
2021/09/28 13:34:33;;;;;;;;;;;23.30;89.60;;;;;;5014142;28;19906;-79
2021/09/28 13:36:59;;;;;;;;;;;22.30;92.30;;;;;;5013550;28;19913;-79
2021/09/28 13:39:24;;;;;;;;;;;23.60;92.30;;;;;;5012512;28;19913;-79
2021/09/28 13:41:50;;;;;;;;;;;24.00;91.00;;;;;;5014136;28;19928;-80
2021/09/28 13:44:15;;;;;;;;;;;22.60;92.40;;;;;;5012599;28;19906;-79
2021/09/28 13:46:41;;;;;;;;;;;21.90;94.30;;;;;;5013947;28;20408;-79
2021/09/28 13:49:07;;;;;;;;;;;21.00;95.90;;;;;;5012592;28;19923;-79
2021/09/28 13:51:36;;;;;;;;;;;20.70;97.80;;;;;;5012509;28;20376;-79
2021/09/28 13:54:03;;;;;;;;;;;20.30;99.90;;;;;;5012581;28;19912;-79
2021/09/28 13:56:30;;;;;;;;;;;19.30;99.90;;;;;;5012463;28;19906;-78
2021/09/28 13:58:55;;;;;;;;;;;19.20;99.90;;;;;;5013021;28;19963;-78
2021/09/28 14:01:22;;;;;;;;;;;18.50;99.90;;;;;;5013618;28;19988;-81
2021/09/28 14:03:48;;;;;;;;;;;17.40;99.90;;;;;;5013413;28;19909;-80
2021/09/28 14:06:17;;;;;;;;;;;16.90;99.90;;;;;;5012282;28;20400;-80
2021/09/28 14:08:43;;;;;;;;;;;17.00;99.90;;;;;;5013520;28;19913;-78
2021/09/28 14:11:09;;;;;;;;;;;17.20;99.90;;;;;;5014241;28;19905;-78
2021/09/28 14:13:35;;;;;;;;;;;17.30;99.90;;;;;;5013341;28;20368;-77
2021/09/28 14:16:00;;;;;;;;;;;17.80;99.90;;;;;;5013922;28;19905;-78
2021/09/28 14:18:26;;;;;;;;;;;18.60;99.90;;;;;;5013856;28;20357;-79
2021/09/28 14:20:51;;;;;;;;;;;22.10;99.90;;;;;;5013224;28;19906;-78